Time;durP1;ratioP1;P1;durP2;ratioP2;P2;SDS_P1;SDS_P2;PMS_P1;PMS_P2;Temp;Humidity;BMP_temperature;BMP_pressure;BME280_temperature;BME280_humidity;BME280_pressure;Samples;Min_cycle;Max_cycle;Signal;HPM_P1;HPM_P2
2022/02/11 00:00:01;;;;;;;32.83;23.95;;;;;;;;;;143732;642;46021;-84
2022/02/11 00:07:55;;;;;;;30.50;21.52;;;;;;;;;;143730;614;46013;-85
2022/02/11 00:10:23;;;;;;;34.88;24.80;;;;;;;;;;143733;594;46012;-84
2022/02/11 00:12:50;;;;;;;35.20;25.90;;;;;;;;;;143725;613;46022;-84
2022/02/11 00:15:37;;;;;;;34.10;26.55;;;;;;;;;;143731;564;46020;-84
2022/02/11 00:18:05;;;;;;;39.05;28.83;;;;;;;;;;143729;567;46020;-83
2022/02/11 00:20:36;;;;;;;37.30;27.67;;;;;;;;;;143735;575;46018;-85
2022/02/11 00:23:06;;;;;;;38.85;27.85;;;;;;;;;;143728;602;46023;-84
2022/02/11 00:25:41;;;;;;;34.33;22.60;;;;;;;;;;143735;566;45915;-84
2022/02/11 00:33:59;;;;;;;23.40;18.05;;;;;;;;;;143731;579;46014;-84
2022/02/11 00:36:38;;;;;;;24.48;16.90;;;;;;;;;;143731;605;47021;-84
2022/02/11 00:39:49;;;;;;;23.58;15.90;;;;;;;;;;143725;634;46020;-83
2022/02/11 00:43:10;;;;;;;20.88;14.95;;;;;;;;;;143732;578;47018;-85
2022/02/11 01:04:30;;;;;;;18.70;14.45;;;;;;;;;;143734;574;46012;-84
2022/02/11 01:06:57;;;;;;;20.02;12.52;;;;;;;;;;143726;571;46021;-84
2022/02/11 01:09:25;;;;;;;21.85;12.30;;;;;;;;;;143732;584;46014;-84
2022/02/11 01:11:53;;;;;;;18.98;13.62;;;;;;;;;;143733;590;46014;-83
2022/02/11 01:14:32;;;;;;;24.60;15.25;;;;;;;;;;143733;596;46013;-83
2022/02/11 01:17:08;;;;;;;26.40;16.55;;;;;;;;;;143727;578;46022;-84
2022/02/11 01:19:57;;;;;;;26.60;16.23;;;;;;;;;;143730;623;46012;-84
2022/02/11 01:22:44;;;;;;;30.10;16.98;;;;;;;;;;143732;600;46021;-83
2022/02/11 01:31:09;;;;;;;29.95;18.50;;;;;;;;;;143730;633;46021;-84
2022/02/11 01:45:43;;;;;;;26.80;17.65;;;;;;;;;;143729;617;46020;-84
2022/02/11 01:51:12;;;;;;;21.50;15.90;;;;;;;;;;143732;600;46014;-82
2022/02/11 01:54:00;;;;;;;22.48;14.38;;;;;;;;;;143733;655;46012;-84
2022/02/11 01:56:46;;;;;;;21.87;14.68;;;;;;;;;;143732;570;46020;-85
2022/02/11 02:13:36;;;;;;;17.42;11.68;;;;;;;;;;143733;594;46021;-85
2022/02/11 02:22:05;;;;;;;15.90;9.80;;;;;;;;;;143733;615;46018;-85
2022/02/11 02:27:54;;;;;;;14.65;10.45;;;;;;;;;;143726;610;46020;-85
2022/02/11 02:36:52;;;;;;;13.82;9.07;;;;;;;;;;143734;579;46025;-85
2022/02/11 02:50:49;;;;;;;16.25;10.32;;;;;;;;;;143732;620;46913;-84
2022/02/11 02:59:00;;;;;;;18.33;11.73;;;;;;;;;;143728;577;46014;-84
2022/02/11 03:14:42;;;;;;;47.78;31.10;;;;;;;;;;143734;676;46021;-82
2022/02/11 03:35:01;;;;;;;21.75;13.95;;;;;;;;;;143730;572;46021;-84
2022/02/11 03:48:54;;;;;;;10.05;5.25;;;;;;;;;;143727;587;47012;-83
2022/02/11 03:51:44;;;;;;;8.55;4.10;;;;;;;;;;143730;588;46012;-85
2022/02/11 04:53:09;;;;;;;40.15;23.23;;;;;;;;;;143732;582;46012;-83
2022/02/11 04:55:27;;;;;;;36.95;19.67;;;;;;;;;;143729;595;46022;-84
2022/02/11 05:00:39;;;;;;;36.58;19.83;;;;;;;;;;143732;684;46014;-84
2022/02/11 05:03:07;;;;;;;34.90;21.12;;;;;;;;;;143731;565;46012;-83
2022/02/11 05:05:49;;;;;;;25.90;16.83;;;;;;;;;;143725;564;47021;-83
2022/02/11 05:08:26;;;;;;;25.80;16.40;;;;;;;;;;143731;581;46012;-85
2022/02/11 05:10:56;;;;;;;28.83;16.70;;;;;;;;;;143726;578;46022;-85
2022/02/11 05:13:23;;;;;;;21.52;14.87;;;;;;;;;;143731;564;46013;-83
2022/02/11 05:15:50;;;;;;;28.10;16.45;;;;;;;;;;143723;662;46020;-83
2022/02/11 05:18:19;;;;;;;26.83;17.65;;;;;;;;;;143729;665;46012;-84
2022/02/11 05:20:47;;;;;;;27.85;15.40;;;;;;;;;;143729;661;46021;-84
2022/02/11 05:23:15;;;;;;;29.45;17.67;;;;;;;;;;143729;620;46012;-83
2022/02/11 05:25:43;;;;;;;27.33;17.95;;;;;;;;;;143727;567;47020;-84
2022/02/11 05:28:12;;;;;;;27.48;17.83;;;;;;;;;;143731;657;46018;-84
2022/02/11 05:30:39;;;;;;;27.60;18.02;;;;;;;;;;143728;689;47022;-85
2022/02/11 05:33:09;;;;;;;56.42;21.40;;;;;;;;;;143729;591;46013;-86
2022/02/11 05:35:38;;;;;;;31.60;19.15;;;;;;;;;;143727;594;47021;-84
2022/02/11 05:38:05;;;;;;;28.12;16.65;;;;;;;;;;143728;577;46012;-84
2022/02/11 05:40:31;;;;;;;23.60;14.50;;;;;;;;;;143725;583;46015;-84
2022/02/11 05:42:58;;;;;;;22.50;13.10;;;;;;;;;;143727;565;46013;-84
2022/02/11 05:45:28;;;;;;;29.27;14.93;;;;;;;;;;143727;594;47020;-84
2022/02/11 05:47:54;;;;;;;27.37;15.93;;;;;;;;;;143731;579;46012;-83
2022/02/11 05:50:21;;;;;;;21.27;13.40;;;;;;;;;;143728;635;47023;-84
2022/02/11 05:52:48;;;;;;;22.13;12.90;;;;;;;;;;143730;749;46012;-84
2022/02/11 05:55:15;;;;;;;28.08;11.12;;;;;;;;;;143728;592;47020;-85
2022/02/11 05:57:42;;;;;;;21.87;10.50;;;;;;;;;;143729;569;46018;-85
2022/02/11 06:00:09;;;;;;;17.85;10.95;;;;;;;;;;143727;585;46022;-83
2022/02/11 06:02:39;;;;;;;16.42;9.27;;;;;;;;;;143731;565;46012;-84
2022/02/11 06:05:09;;;;;;;17.17;10.75;;;;;;;;;;143727;572;46012;-83
2022/02/11 06:07:36;;;;;;;18.50;8.38;;;;;;;;;;143733;569;46018;-83
2022/02/11 06:10:06;;;;;;;15.25;7.80;;;;;;;;;;143730;722;46022;-81
2022/02/11 06:12:35;;;;;;;17.15;8.88;;;;;;;;;;143729;592;46012;-83
2022/02/11 06:15:05;;;;;;;15.68;8.77;;;;;;;;;;143729;584;46020;-83
2022/02/11 06:17:32;;;;;;;16.98;8.38;;;;;;;;;;143728;581;46012;-82
2022/02/11 06:20:00;;;;;;;12.80;8.05;;;;;;;;;;143730;613;45036;-82
2022/02/11 06:22:28;;;;;;;22.55;9.07;;;;;;;;;;143730;595;46012;-82
2022/02/11 06:25:00;;;;;;;16.27;9.80;;;;;;;;;;143730;565;47020;-82
2022/02/11 06:27:27;;;;;;;22.42;10.23;;;;;;;;;;143732;738;46018;-84
2022/02/11 06:29:54;;;;;;;27.50;18.62;;;;;;;;;;143726;564;46014;-84
2022/02/11 06:32:22;;;;;;;36.80;25.58;;;;;;;;;;143729;570;46012;-84
2022/02/11 06:34:50;;;;;;;33.63;23.75;;;;;;;;;;143728;591;46021;-84
2022/02/11 06:37:17;;;;;;;36.97;25.58;;;;;;;;;;143729;667;46012;-82
2022/02/11 06:39:44;;;;;;;34.30;23.62;;;;;;;;;;143727;592;46022;-82
2022/02/11 06:42:11;;;;;;;42.20;21.10;;;;;;;;;;143729;571;46013;-84
2022/02/11 06:44:37;;;;;;;30.45;16.45;;;;;;;;;;143729;728;46020;-83
2022/02/11 06:47:05;;;;;;;31.77;16.80;;;;;;;;;;143731;593;46012;-84
2022/02/11 06:49:32;;;;;;;42.25;24.00;;;;;;;;;;143727;569;46021;-85
2022/02/11 06:52:00;;;;;;;39.80;23.87;;;;;;;;;;143729;564;46012;-84
2022/02/11 06:54:29;;;;;;;43.22;27.27;;;;;;;;;;143721;673;46020;-83
2022/02/11 06:56:56;;;;;;;32.30;21.98;;;;;;;;;;143728;582;46012;-83
2022/02/11 06:59:23;;;;;;;35.42;22.48;;;;;;;;;;143727;629;47023;-83
2022/02/11 07:01:50;;;;;;;37.75;21.42;;;;;;;;;;143730;565;46020;-85
2022/02/11 07:04:16;;;;;;;32.17;19.42;;;;;;;;;;143730;658;46021;-84
2022/02/11 07:06:52;;;;;;;31.02;17.50;;;;;;;;;;143729;603;46012;-84
2022/02/11 07:09:19;;;;;;;18.67;13.48;;;;;;;;;;143729;592;47022;-82
2022/02/11 07:11:45;;;;;;;23.40;14.30;;;;;;;;;;143727;594;46013;-82
2022/02/11 07:14:12;;;;;;;17.73;12.88;;;;;;;;;;143728;594;46020;-82
2022/02/11 07:16:39;;;;;;;33.42;15.05;;;;;;;;;;143731;573;46012;-82
2022/02/11 07:19:06;;;;;;;30.30;15.13;;;;;;;;;;143725;725;46022;-82
2022/02/11 07:21:33;;;;;;;23.05;12.60;;;;;;;;;;143727;587;46012;-82
2022/02/11 07:24:00;;;;;;;27.08;14.13;;;;;;;;;;143729;643;46020;-82
2022/02/11 07:26:27;;;;;;;17.85;14.60;;;;;;;;;;143730;583;46012;-82
2022/02/11 07:28:54;;;;;;;24.50;13.70;;;;;;;;;;143728;605;46022;-83
2022/02/11 07:31:20;;;;;;;18.92;12.48;;;;;;;;;;143729;611;46012;-82
2022/02/11 07:33:47;;;;;;;23.17;12.48;;;;;;;;;;143729;638;46013;-83
2022/02/11 07:36:14;;;;;;;17.30;13.32;;;;;;;;;;143732;578;46018;-83
2022/02/11 07:38:46;;;;;;;22.90;14.68;;;;;;;;;;143731;577;46022;-82
2022/02/11 07:41:13;;;;;;;31.52;15.90;;;;;;;;;;143729;585;46858;-84
2022/02/11 07:43:40;;;;;;;25.33;15.18;;;;;;;;;;143723;588;46020;-83
2022/02/11 07:46:07;;;;;;;25.30;16.52;;;;;;;;;;143731;589;46012;-83
2022/02/11 07:48:34;;;;;;;27.02;16.52;;;;;;;;;;143731;564;46022;-83
2022/02/11 07:51:04;;;;;;;28.55;16.58;;;;;;;;;;143729;601;46012;-82
2022/02/11 07:53:34;;;;;;;31.77;19.70;;;;;;;;;;143726;578;46039;-83
2022/02/11 07:56:01;;;;;;;42.55;22.98;;;;;;;;;;143730;564;46019;-82
2022/02/11 07:58:28;;;;;;;43.85;23.38;;;;;;;;;;143726;578;47023;-82
2022/02/11 08:00:57;;;;;;;32.92;22.85;;;;;;;;;;143730;632;47007;-81
2022/02/11 08:03:24;;;;;;;47.53;28.02;;;;;;;;;;143729;587;46020;-82
2022/02/11 08:05:51;;;;;;;43.85;27.20;;;;;;;;;;143728;575;46012;-83
2022/02/11 08:08:20;;;;;;;33.72;26.35;;;;;;;;;;143724;574;46022;-83
2022/02/11 08:10:47;;;;;;;42.90;26.95;;;;;;;;;;143729;599;46013;-81
2022/02/11 08:13:13;;;;;;;39.92;22.20;;;;;;;;;;143727;620;46020;-83
2022/02/11 08:15:41;;;;;;;39.13;25.15;;;;;;;;;;143730;589;46012;-83
2022/02/11 08:18:08;;;;;;;38.17;24.67;;;;;;;;;;143729;564;46022;-82
2022/02/11 08:20:36;;;;;;;32.08;23.12;;;;;;;;;;143729;574;46012;-82
2022/02/11 08:23:04;;;;;;;41.05;25.90;;;;;;;;;;143730;565;46020;-82
2022/02/11 08:25:33;;;;;;;31.40;23.27;;;;;;;;;;143731;579;46019;-83
2022/02/11 08:28:04;;;;;;;35.63;23.75;;;;;;;;;;143728;653;47023;-81
2022/02/11 08:30:31;;;;;;;26.17;21.12;;;;;;;;;;143727;585;46012;-82
2022/02/11 08:32:58;;;;;;;30.30;18.67;;;;;;;;;;143722;569;46021;-82
2022/02/11 08:35:24;;;;;;;25.77;20.62;;;;;;;;;;143729;601;46018;-83
2022/02/11 08:37:51;;;;;;;29.70;18.58;;;;;;;;;;143729;576;46048;-82
2022/02/11 08:40:18;;;;;;;27.25;18.80;;;;;;;;;;143730;571;46012;-83
2022/02/11 08:42:45;;;;;;;32.33;21.77;;;;;;;;;;143729;616;46021;-82
2022/02/11 08:45:12;;;;;;;39.45;22.13;;;;;;;;;;143727;603;46020;-82
2022/02/11 08:47:39;;;;;;;27.15;19.67;;;;;;;;;;143731;602;46022;-83
2022/02/11 08:50:07;;;;;;;42.10;20.60;;;;;;;;;;143731;576;46012;-82
2022/02/11 08:52:34;;;;;;;18.33;12.50;;;;;;;;;;143730;626;46020;-83
2022/02/11 08:55:00;;;;;;;15.88;11.07;;;;;;;;;;143730;565;46013;-82
2022/02/11 08:57:29;;;;;;;26.67;17.73;;;;;;;;;;143723;616;46020;-82
2022/02/11 08:59:57;;;;;;;22.85;15.77;;;;;;;;;;143726;605;46012;-81
2022/02/11 09:02:28;;;;;;;25.80;16.42;;;;;;;;;;143728;578;46020;-82
2022/02/11 09:04:54;;;;;;;21.80;14.32;;;;;;;;;;143729;592;46012;-82
2022/02/11 09:07:22;;;;;;;21.92;15.15;;;;;;;;;;143728;564;46020;-82
2022/02/11 09:09:50;;;;;;;19.17;13.40;;;;;;;;;;143729;583;46012;-83
2022/02/11 09:12:16;;;;;;;20.02;13.35;;;;;;;;;;143729;592;46012;-82
2022/02/11 09:14:43;;;;;;;14.63;11.35;;;;;;;;;;143730;672;46012;-82
2022/02/11 09:17:11;;;;;;;21.42;15.43;;;;;;;;;;143727;613;46022;-83
2022/02/11 09:19:37;;;;;;;25.92;20.55;;;;;;;;;;143728;564;46012;-82
2022/02/11 09:22:06;;;;;;;26.75;18.52;;;;;;;;;;143725;569;46020;-81
2022/02/11 09:24:32;;;;;;;20.98;16.85;;;;;;;;;;143732;591;46020;-82
2022/02/11 09:26:59;;;;;;;26.12;16.25;;;;;;;;;;143725;586;46021;-81
2022/02/11 09:29:26;;;;;;;21.62;15.55;;;;;;;;;;143731;724;46020;-82
2022/02/11 09:31:54;;;;;;;21.73;12.90;;;;;;;;;;143729;613;46021;-83
2022/02/11 09:34:21;;;;;;;19.67;14.40;;;;;;;;;;143728;566;46018;-82
2022/02/11 09:36:49;;;;;;;16.50;11.65;;;;;;;;;;143733;748;46022;-83
2022/02/11 09:39:16;;;;;;;18.35;13.43;;;;;;;;;;143728;591;46013;-82
2022/02/11 09:41:44;;;;;;;18.80;14.55;;;;;;;;;;143731;581;46020;-81
2022/02/11 09:44:13;;;;;;;23.62;14.18;;;;;;;;;;143732;571;46012;-83
2022/02/11 09:46:40;;;;;;;26.58;18.83;;;;;;;;;;143722;578;47022;-82
2022/02/11 09:49:07;;;;;;;13.98;9.35;;;;;;;;;;143729;586;46012;-81
2022/02/11 09:51:34;;;;;;;15.43;9.82;;;;;;;;;;143729;724;46029;-82
2022/02/11 09:54:02;;;;;;;21.42;13.20;;;;;;;;;;143733;607;46012;-82
2022/02/11 09:56:28;;;;;;;23.02;12.85;;;;;;;;;;143731;588;46044;-81
2022/02/11 09:58:55;;;;;;;17.05;12.07;;;;;;;;;;143729;585;46012;-81
2022/02/11 10:01:22;;;;;;;25.95;15.68;;;;;;;;;;143732;640;46020;-82
2022/02/11 10:04:08;;;;;;;35.90;16.85;;;;;;;;;;143732;598;46018;-81
2022/02/11 10:06:36;;;;;;;19.65;12.57;;;;;;;;;;143727;641;47020;-83
2022/02/11 10:09:16;;;;;;;13.05;11.30;;;;;;;;;;143736;587;45915;-83
2022/02/11 10:11:45;;;;;;;21.83;14.85;;;;;;;;;;143728;564;46012;-83
2022/02/11 10:14:43;;;;;;;20.20;12.40;;;;;;;;;;143727;588;46020;-83
2022/02/11 10:17:19;;;;;;;25.45;12.63;;;;;;;;;;143732;626;46024;-82
2022/02/11 10:19:56;;;;;;;15.45;11.48;;;;;;;;;;143731;579;46038;-83
2022/02/11 10:22:26;;;;;;;14.90;11.93;;;;;;;;;;143727;630;46020;-82
2022/02/11 10:24:57;;;;;;;18.33;12.88;;;;;;;;;;143726;585;46013;-82
2022/02/11 10:27:34;;;;;;;14.07;12.50;;;;;;;;;;143732;564;46020;-83
2022/02/11 10:30:05;;;;;;;15.88;12.37;;;;;;;;;;143729;575;46012;-82
2022/02/11 10:33:00;;;;;;;13.48;11.60;;;;;;;;;;143730;632;46021;-81
2022/02/11 10:35:29;;;;;;;18.60;11.32;;;;;;;;;;143731;622;46012;-82
2022/02/11 10:38:13;;;;;;;14.80;13.30;;;;;;;;;;143723;575;47022;-81
2022/02/11 10:40:41;;;;;;;17.42;12.52;;;;;;;;;;143728;618;46018;-82
2022/02/11 10:43:36;;;;;;;15.55;12.25;;;;;;;;;;143730;583;46020;-82
2022/02/11 10:46:14;;;;;;;19.62;13.62;;;;;;;;;;143732;581;46012;-80
2022/02/11 10:48:42;;;;;;;17.37;13.48;;;;;;;;;;143728;594;47023;-83
2022/02/11 10:51:25;;;;;;;19.35;14.38;;;;;;;;;;143729;570;46020;-82
2022/02/11 10:53:52;;;;;;;20.58;13.73;;;;;;;;;;143727;570;46021;-80
2022/02/11 10:56:19;;;;;;;21.08;12.85;;;;;;;;;;143730;592;46018;-82
2022/02/11 10:58:56;;;;;;;15.52;12.77;;;;;;;;;;143730;611;47022;-82
2022/02/11 11:01:28;;;;;;;19.20;15.48;;;;;;;;;;143730;572;46914;-81
2022/02/11 11:03:58;;;;;;;22.55;14.32;;;;;;;;;;143724;585;46020;-81
2022/02/11 11:06:25;;;;;;;20.30;15.30;;;;;;;;;;143730;621;46012;-82
2022/02/11 11:08:54;;;;;;;16.40;14.52;;;;;;;;;;143729;578;47022;-81
2022/02/11 11:11:24;;;;;;;18.65;12.73;;;;;;;;;;143731;632;46012;-81
2022/02/11 11:13:54;;;;;;;20.55;14.23;;;;;;;;;;143729;585;46020;-81
2022/02/11 11:16:21;;;;;;;21.20;14.10;;;;;;;;;;143731;599;46012;-80
2022/02/11 11:18:48;;;;;;;17.15;13.85;;;;;;;;;;143733;565;46023;-81
2022/02/11 11:21:16;;;;;;;21.83;14.98;;;;;;;;;;143731;593;46012;-81
2022/02/11 11:23:56;;;;;;;26.75;15.43;;;;;;;;;;143728;628;46021;-80
2022/02/11 11:26:38;;;;;;;17.05;12.93;;;;;;;;;;143733;592;47020;-82
2022/02/11 11:29:30;;;;;;;32.17;15.82;;;;;;;;;;143726;569;46022;-81
2022/02/11 11:31:59;;;;;;;19.92;15.73;;;;;;;;;;143732;622;46021;-81
2022/02/11 11:34:28;;;;;;;17.25;14.85;;;;;;;;;;143730;589;46020;-81
2022/02/11 11:37:03;;;;;;;19.75;15.23;;;;;;;;;;143734;629;46012;-80
2022/02/11 11:39:35;;;;;;;21.30;14.60;;;;;;;;;;143731;622;46022;-81
2022/02/11 11:42:15;;;;;;;19.17;14.23;;;;;;;;;;143730;583;46012;-80
2022/02/11 11:44:54;;;;;;;25.23;16.33;;;;;;;;;;143727;635;46020;-81
2022/02/11 11:47:43;;;;;;;24.90;16.55;;;;;;;;;;143733;591;46012;-82
2022/02/11 11:50:32;;;;;;;21.83;16.92;;;;;;;;;;143729;577;46022;-82
2022/02/11 11:53:00;;;;;;;29.60;16.80;;;;;;;;;;143732;583;46013;-82
2022/02/11 11:55:27;;;;;;;24.27;18.45;;;;;;;;;;143725;621;46023;-81
2022/02/11 11:57:53;;;;;;;27.35;16.12;;;;;;;;;;143731;564;46012;-81
2022/02/11 12:00:41;;;;;;;20.75;16.70;;;;;;;;;;143733;619;45022;-82
2022/02/11 12:03:09;;;;;;;27.13;16.73;;;;;;;;;;143731;677;46020;-81
2022/02/11 12:05:45;;;;;;;16.33;14.02;;;;;;;;;;143730;586;46020;-81
2022/02/11 12:08:29;;;;;;;22.90;17.27;;;;;;;;;;143730;594;47020;-81
2022/02/11 12:11:00;;;;;;;22.10;16.37;;;;;;;;;;143731;577;46023;-81
2022/02/11 12:13:35;;;;;;;22.27;17.02;;;;;;;;;;143732;636;46048;-81
2022/02/11 12:16:03;;;;;;;22.50;15.27;;;;;;;;;;143731;564;46021;-82
2022/02/11 12:18:31;;;;;;;21.62;14.55;;;;;;;;;;143733;688;46020;-80
2022/02/11 12:21:04;;;;;;;19.90;12.90;;;;;;;;;;143726;569;46022;-82
2022/02/11 12:29:05;;;;;;;19.65;13.77;;;;;;;;;;143730;608;47020;-81
2022/02/11 12:31:35;;;;;;;23.50;14.13;;;;;;;;;;143731;581;46032;-81
2022/02/11 12:34:15;;;;;;;19.42;15.60;;;;;;;;;;143731;628;46020;-79
2022/02/11 12:36:42;;;;;;;20.23;17.30;;;;;;;;;;143734;614;46020;-82
2022/02/11 12:39:32;;;;;;;25.20;13.25;;;;;;;;;;143733;594;46010;-83
2022/02/11 12:42:05;;;;;;;14.77;9.85;;;;;;;;;;143734;566;45024;-83
2022/02/11 12:44:35;;;;;;;12.88;9.13;;;;;;;;;;143734;634;46021;-82
2022/02/11 12:47:04;;;;;;;14.23;8.23;;;;;;;;;;143727;633;46021;-81
2022/02/11 12:50:04;;;;;;;;;;;;;;;;;;;;;
2022/02/11 12:53:42;;;;;;;10.23;6.12;;;;;;;;;;143732;587;46015;-82
2022/02/11 12:56:22;;;;;;;10.90;5.85;;;;;;;;;;143729;573;46020;-82
2022/02/11 12:59:07;;;;;;;9.52;5.40;;;;;;;;;;143732;588;46020;-81
2022/02/11 13:01:38;;;;;;;14.70;5.15;;;;;;;;;;143733;575;46018;-81
2022/02/11 13:04:05;;;;;;;18.70;6.72;;;;;;;;;;143727;605;46020;-82
2022/02/11 13:06:37;;;;;;;13.32;5.45;;;;;;;;;;143733;711;46012;-81
2022/02/11 13:09:18;;;;;;;8.13;5.85;;;;;;;;;;143732;787;46021;-81
2022/02/11 13:11:49;;;;;;;7.70;5.05;;;;;;;;;;143731;605;46018;-81
2022/02/11 13:14:21;;;;;;;15.45;6.37;;;;;;;;;;143726;576;46022;-81
2022/02/11 13:16:49;;;;;;;8.15;4.75;;;;;;;;;;143734;722;46013;-82
2022/02/11 13:19:17;;;;;;;10.38;4.40;;;;;;;;;;143732;564;46020;-81
2022/02/11 13:21:50;;;;;;;7.45;4.97;;;;;;;;;;143733;639;46020;-81
2022/02/11 13:24:20;;;;;;;6.62;4.47;;;;;;;;;;143733;798;46021;-81
2022/02/11 13:26:52;;;;;;;10.15;6.10;;;;;;;;;;143729;577;46020;-80
2022/02/11 13:29:19;;;;;;;6.95;4.00;;;;;;;;;;143731;564;46020;-81
2022/02/11 13:31:51;;;;;;;6.20;3.30;;;;;;;;;;143735;585;46010;-83
2022/02/11 13:34:18;;;;;;;8.20;2.83;;;;;;;;;;143736;583;46022;-82
2022/02/11 13:36:48;;;;;;;6.87;4.15;;;;;;;;;;143731;632;46013;-81
2022/02/11 13:39:53;;;;;;;4.40;3.40;;;;;;;;;;143730;713;46012;-84
2022/02/11 13:42:30;;;;;;;6.87;3.12;;;;;;;;;;143732;899;46012;-83
2022/02/11 13:45:06;;;;;;;8.07;3.60;;;;;;;;;;143731;564;46022;-85
2022/02/11 13:47:55;;;;;;;5.28;3.90;;;;;;;;;;143733;569;46012;-86
2022/02/11 13:50:26;;;;;;;5.53;3.25;;;;;;;;;;143734;623;46047;-84
2022/02/11 13:53:09;;;;;;;6.15;4.12;;;;;;;;;;143735;621;46021;-86
2022/02/11 13:55:39;;;;;;;6.53;3.97;;;;;;;;;;143732;728;46014;-87
2022/02/11 13:58:16;;;;;;;6.62;4.15;;;;;;;;;;143731;564;46020;-86
2022/02/11 14:00:44;;;;;;;8.35;3.42;;;;;;;;;;143731;595;46020;-86
2022/02/11 14:03:54;;;;;;;4.43;3.65;;;;;;;;;;143731;569;46018;-87
2022/02/11 14:06:23;;;;;;;9.13;3.80;;;;;;;;;;143728;639;46012;-86
2022/02/11 14:08:54;;;;;;;6.60;4.43;;;;;;;;;;143733;651;46021;-85
2022/02/11 14:11:25;;;;;;;4.72;3.92;;;;;;;;;;143729;572;46020;-87
2022/02/11 14:14:11;;;;;;;4.97;3.45;;;;;;;;;;143731;566;46020;-85
2022/02/11 14:16:39;;;;;;;5.75;4.28;;;;;;;;;;143729;570;46021;-87
2022/02/11 14:19:08;;;;;;;6.00;3.80;;;;;;;;;;143730;628;46914;-85
2022/02/11 14:21:44;;;;;;;5.28;4.45;;;;;;;;;;143727;748;46020;-86
2022/02/11 14:24:23;;;;;;;6.18;3.92;;;;;;;;;;143730;620;46020;-85
2022/02/11 14:26:54;;;;;;;5.03;4.12;;;;;;;;;;143731;631;46020;-86
2022/02/11 14:29:22;;;;;;;4.97;3.95;;;;;;;;;;143732;570;46013;-85
2022/02/11 14:31:51;;;;;;;8.27;4.53;;;;;;;;;;143725;587;46021;-85
2022/02/11 14:34:21;;;;;;;7.18;4.22;;;;;;;;;;143725;620;47018;-85
2022/02/11 14:36:55;;;;;;;6.20;4.72;;;;;;;;;;143730;645;46022;-85
2022/02/11 14:39:23;;;;;;;6.12;4.80;;;;;;;;;;143733;636;46012;-84
2022/02/11 14:41:55;;;;;;;7.75;5.20;;;;;;;;;;143731;564;46020;-83
2022/02/11 14:44:24;;;;;;;7.30;4.55;;;;;;;;;;143731;580;46019;-83
2022/02/11 14:46:55;;;;;;;8.65;5.00;;;;;;;;;;143726;572;47020;-83
2022/02/11 14:49:24;;;;;;;7.72;5.03;;;;;;;;;;143732;609;46020;-83
2022/02/11 14:52:01;;;;;;;7.32;5.25;;;;;;;;;;143732;590;46021;-83
2022/02/11 14:54:32;;;;;;;8.98;5.03;;;;;;;;;;143734;687;46012;-84
2022/02/11 14:56:59;;;;;;;8.48;5.35;;;;;;;;;;143725;615;46022;-82
2022/02/11 14:59:29;;;;;;;7.72;5.75;;;;;;;;;;143731;556;46021;-85
2022/02/11 15:02:10;;;;;;;;;;;;;;;;;;;;;
2022/02/11 15:04:38;;;;;;;10.50;4.68;;;;;;;;;;143728;631;46020;-86
2022/02/11 15:07:20;;;;;;;;;;;;;;;;;;;;;
2022/02/11 15:09:47;;;;;;;11.95;6.62;;;;;;;;;;143731;609;46014;-84
2022/02/11 15:12:17;;;;;;;8.05;5.28;;;;;;;;;;143728;579;46020;-84
2022/02/11 15:14:53;;;;;;;5.28;4.57;;;;;;;;;;143735;583;45023;-85
2022/02/11 15:17:36;;;;;;;;;;;;;;;;;;;;;
2022/02/11 15:20:07;;;;;;;10.27;6.72;;;;;;;;;;143734;565;46020;-82
2022/02/11 15:22:37;;;;;;;9.80;7.95;;;;;;;;;;143729;682;46013;-84
2022/02/11 15:25:04;;;;;;;8.43;5.05;;;;;;;;;;143733;616;47018;-83
2022/02/11 15:27:32;;;;;;;9.90;5.18;;;;;;;;;;143734;582;46022;-83
2022/02/11 15:29:59;;;;;;;7.53;5.47;;;;;;;;;;143732;569;46020;-83
2022/02/11 15:32:26;;;;;;;13.98;5.55;;;;;;;;;;143732;582;46020;-82
2022/02/11 15:34:53;;;;;;;9.07;5.10;;;;;;;;;;143732;608;46018;-83
2022/02/11 15:37:20;;;;;;;11.23;6.95;;;;;;;;;;143732;633;47022;-83
2022/02/11 15:39:53;;;;;;;11.88;7.95;;;;;;;;;;143732;570;46012;-82
2022/02/11 15:42:20;;;;;;;16.73;8.45;;;;;;;;;;143731;631;46012;-81
2022/02/11 15:44:47;;;;;;;9.25;6.70;;;;;;;;;;143731;572;46021;-81
2022/02/11 15:47:14;;;;;;;7.80;6.72;;;;;;;;;;143724;565;46023;-81
2022/02/11 15:49:41;;;;;;;9.60;6.78;;;;;;;;;;143731;619;46020;-82
2022/02/11 15:52:09;;;;;;;11.73;6.60;;;;;;;;;;143729;641;46021;-82
2022/02/11 15:54:36;;;;;;;7.00;5.97;;;;;;;;;;143730;571;46012;-81
2022/02/11 15:57:03;;;;;;;8.60;5.78;;;;;;;;;;143728;607;46022;-82
2022/02/11 15:59:31;;;;;;;8.77;6.47;;;;;;;;;;143729;634;47021;-81
2022/02/11 16:02:01;;;;;;;7.80;5.60;;;;;;;;;;143729;644;46020;-81
2022/02/11 16:04:33;;;;;;;9.60;6.40;;;;;;;;;;143732;620;46020;-83
2022/02/11 16:07:01;;;;;;;12.63;7.10;;;;;;;;;;143729;633;46014;-80
2022/02/11 16:09:32;;;;;;;13.13;8.98;;;;;;;;;;143732;617;46012;-83
2022/02/11 16:12:00;;;;;;;11.77;8.57;;;;;;;;;;143725;569;46020;-81
2022/02/11 16:14:27;;;;;;;11.90;8.88;;;;;;;;;;143731;565;47020;-83
2022/02/11 16:16:54;;;;;;;11.52;7.47;;;;;;;;;;143730;619;46014;-81
2022/02/11 16:19:22;;;;;;;15.60;9.02;;;;;;;;;;143728;645;46914;-82
2022/02/11 16:21:49;;;;;;;11.10;9.18;;;;;;;;;;143730;578;46021;-81
2022/02/11 16:24:15;;;;;;;10.00;8.57;;;;;;;;;;143729;578;46021;-82
2022/02/11 16:26:42;;;;;;;15.75;11.45;;;;;;;;;;143728;615;46020;-82
2022/02/11 16:29:09;;;;;;;22.55;15.73;;;;;;;;;;143729;597;46013;-82
2022/02/11 16:31:39;;;;;;;34.72;27.92;;;;;;;;;;143732;589;46018;-81
2022/02/11 16:34:06;;;;;;;37.03;26.30;;;;;;;;;;143731;565;47020;-82
2022/02/11 16:36:37;;;;;;;34.08;28.15;;;;;;;;;;143727;660;46012;-80
2022/02/11 16:39:08;;;;;;;41.17;29.37;;;;;;;;;;143729;579;46012;-81
2022/02/11 16:41:35;;;;;;;79.30;65.25;;;;;;;;;;143732;645;46020;-82
2022/02/11 16:44:05;;;;;;;60.97;47.55;;;;;;;;;;143729;671;46013;-83
2022/02/11 16:46:34;;;;;;;49.80;43.78;;;;;;;;;;143728;585;46023;-81
2022/02/11 16:49:12;;;;;;;56.90;44.78;;;;;;;;;;143730;597;46012;-83
2022/02/11 16:51:43;;;;;;;55.58;45.50;;;;;;;;;;143729;592;46021;-81
2022/02/11 16:54:13;;;;;;;48.58;41.15;;;;;;;;;;143730;601;46012;-82
2022/02/11 16:56:43;;;;;;;53.53;41.72;;;;;;;;;;143731;589;46022;-81
2022/02/11 16:59:16;;;;;;;68.60;54.53;;;;;;;;;;143728;571;46012;-81
2022/02/11 17:01:46;;;;;;;61.63;43.75;;;;;;;;;;143720;569;46012;-81
2022/02/11 17:04:13;;;;;;;51.90;45.05;;;;;;;;;;143728;588;47010;-82
2022/02/11 17:06:40;;;;;;;75.18;63.38;;;;;;;;;;143729;657;47022;-81
2022/02/11 17:09:08;;;;;;;70.90;55.25;;;;;;;;;;143729;622;46012;-82
2022/02/11 17:11:37;;;;;;;59.53;45.53;;;;;;;;;;143730;582;46042;-82
2022/02/11 17:14:20;;;;;;;65.53;49.95;;;;;;;;;;143731;566;47018;-81
2022/02/11 17:16:48;;;;;;;60.85;43.72;;;;;;;;;;143730;583;46023;-81
2022/02/11 17:19:15;;;;;;;59.40;42.90;;;;;;;;;;143726;565;46020;-80
2022/02/11 17:22:24;;;;;;;57.72;40.80;;;;;;;;;;143730;641;46037;-82
2022/02/11 17:25:02;;;;;;;51.37;34.42;;;;;;;;;;143729;593;46014;-81
2022/02/11 17:27:29;;;;;;;48.28;34.15;;;;;;;;;;143717;613;47022;-81
2022/02/11 17:29:56;;;;;;;41.28;34.15;;;;;;;;;;143729;581;46013;-82
2022/02/11 17:32:23;;;;;;;54.00;37.88;;;;;;;;;;143726;574;47020;-82
2022/02/11 17:34:53;;;;;;;43.63;34.58;;;;;;;;;;143730;614;46018;-80
2022/02/11 17:37:20;;;;;;;48.53;35.50;;;;;;;;;;143726;574;47021;-81
2022/02/11 17:39:47;;;;;;;60.15;44.95;;;;;;;;;;143728;577;46916;-81
2022/02/11 17:42:15;;;;;;;67.03;51.53;;;;;;;;;;143727;598;47020;-81
2022/02/11 17:44:43;;;;;;;80.78;60.35;;;;;;;;;;143731;576;47010;-80
2022/02/11 17:47:10;;;;;;;68.55;56.25;;;;;;;;;;143727;585;47022;-80
2022/02/11 17:49:37;;;;;;;75.70;57.45;;;;;;;;;;143729;609;46012;-81
2022/02/11 17:52:04;;;;;;;66.47;51.85;;;;;;;;;;143720;599;46021;-81
2022/02/11 17:54:33;;;;;;;66.03;49.63;;;;;;;;;;143733;579;46012;-81
2022/02/11 17:57:01;;;;;;;69.00;46.53;;;;;;;;;;143731;642;47022;-81
2022/02/11 17:59:28;;;;;;;55.35;43.13;;;;;;;;;;143727;583;46916;-81
2022/02/11 18:01:54;;;;;;;60.83;46.92;;;;;;;;;;143730;577;46020;-81
2022/02/11 18:04:21;;;;;;;55.58;41.65;;;;;;;;;;143731;594;46012;-82
2022/02/11 18:06:48;;;;;;;45.25;34.28;;;;;;;;;;143731;590;46014;-81
2022/02/11 18:09:15;;;;;;;43.70;32.08;;;;;;;;;;143730;590;46012;-81
2022/02/11 18:11:42;;;;;;;46.88;33.42;;;;;;;;;;143729;599;46020;-82
2022/02/11 18:14:09;;;;;;;44.63;32.00;;;;;;;;;;143729;650;47021;-83
2022/02/11 18:16:35;;;;;;;44.15;30.98;;;;;;;;;;143723;613;46022;-81